sensor_id;sensor_type;location;lat;lon;timestamp;pressure;altitude;pressure_sealevel;temperature;humidity
70488;BME280;57976;48.174;16.370;2022-07-10T00:00:06;99535.20;;;17.04;83.19
70488;BME280;57976;48.174;16.370;2022-07-10T00:02:14;99534.75;;;17.03;83.46
70488;BME280;57976;48.174;16.370;2022-07-10T00:04:17;99537.22;;;17.01;83.46
70488;BME280;57976;48.174;16.370;2022-07-10T00:06:19;99534.30;;;17.00;83.85
70488;BME280;57976;48.174;16.370;2022-07-10T00:08:22;99531.34;;;16.98;83.41
70488;BME280;57976;48.174;16.370;2022-07-10T00:10:25;99532.64;;;16.96;84.08
70488;BME280;57976;48.174;16.370;2022-07-10T00:12:28;99530.31;;;16.92;83.68
70488;BME280;57976;48.174;16.370;2022-07-10T00:14:31;99533.71;;;16.90;83.84
70488;BME280;57976;48.174;16.370;2022-07-10T00:16:33;99531.49;;;16.89;84.18
70488;BME280;57976;48.174;16.370;2022-07-10T00:18:36;99528.61;;;16.86;84.04
70488;BME280;57976;48.174;16.370;2022-07-10T00:20:40;99527.38;;;16.83;84.48
70488;BME280;57976;48.174;16.370;2022-07-10T00:22:43;99530.17;;;16.83;84.22
70488;BME280;57976;48.174;16.370;2022-07-10T00:24:45;99530.07;;;16.81;84.56
70488;BME280;57976;48.174;16.370;2022-07-10T00:26:48;99526.00;;;16.79;84.85
70488;BME280;57976;48.174;16.370;2022-07-10T00:28:51;99526.55;;;16.79;84.43
70488;BME280;57976;48.174;16.370;2022-07-10T00:30:54;99523.98;;;16.78;84.39
70488;BME280;57976;48.174;16.370;2022-07-10T00:32:57;99520.92;;;16.76;84.49
70488;BME280;57976;48.174;16.370;2022-07-10T00:34:59;99511.91;;;16.75;84.22
70488;BME280;57976;48.174;16.370;2022-07-10T00:37:03;99509.58;;;16.74;84.35
70488;BME280;57976;48.174;16.370;2022-07-10T00:39:06;99512.02;;;16.73;84.37
70488;BME280;57976;48.174;16.370;2022-07-10T00:41:09;99508.80;;;16.70;84.28
70488;BME280;57976;48.174;16.370;2022-07-10T00:43:11;99504.94;;;16.68;84.48
70488;BME280;57976;48.174;16.370;2022-07-10T00:45:14;99501.19;;;16.67;84.58
70488;BME280;57976;48.174;16.370;2022-07-10T00:47:17;99498.34;;;16.67;84.51
70488;BME280;57976;48.174;16.370;2022-07-10T00:49:20;99500.38;;;16.67;84.98
70488;BME280;57976;48.174;16.370;2022-07-10T00:51:25;99502.27;;;16.67;84.88
70488;BME280;57976;48.174;16.370;2022-07-10T00:53:28;99498.98;;;16.68;84.77
70488;BME280;57976;48.174;16.370;2022-07-10T00:55:31;99501.89;;;16.67;84.75
70488;BME280;57976;48.174;16.370;2022-07-10T00:57:36;99501.56;;;16.67;84.78
70488;BME280;57976;48.174;16.370;2022-07-10T00:59:39;99499.42;;;16.67;85.21
70488;BME280;57976;48.174;16.370;2022-07-10T01:01:41;99495.20;;;16.67;85.04
70488;BME280;57976;48.174;16.370;2022-07-10T01:03:44;99493.21;;;16.64;85.24
70488;BME280;57976;48.174;16.370;2022-07-10T01:05:47;99493.94;;;16.63;85.57
70488;BME280;57976;48.174;16.370;2022-07-10T01:07:50;99493.64;;;16.62;85.13
70488;BME280;57976;48.174;16.370;2022-07-10T01:09:52;99490.85;;;16.61;84.94
70488;BME280;57976;48.174;16.370;2022-07-10T01:11:55;99489.11;;;16.61;85.13
70488;BME280;57976;48.174;16.370;2022-07-10T01:13:59;99489.14;;;16.60;85.09
70488;BME280;57976;48.174;16.370;2022-07-10T01:16:02;99487.57;;;16.59;84.80
70488;BME280;57976;48.174;16.370;2022-07-10T01:18:05;99485.90;;;16.60;84.68
70488;BME280;57976;48.174;16.370;2022-07-10T01:20:10;99484.02;;;16.59;84.81
70488;BME280;57976;48.174;16.370;2022-07-10T01:22:13;99481.98;;;16.59;85.03
70488;BME280;57976;48.174;16.370;2022-07-10T01:24:16;99478.16;;;16.60;84.76
70488;BME280;57976;48.174;16.370;2022-07-10T01:26:20;99476.55;;;16.60;84.55
70488;BME280;57976;48.174;16.370;2022-07-10T01:28:23;99471.79;;;16.61;84.42
70488;BME280;57976;48.174;16.370;2022-07-10T01:30:28;99466.13;;;16.61;84.38
70488;BME280;57976;48.174;16.370;2022-07-10T01:32:37;99467.16;;;16.61;84.55
70488;BME280;57976;48.174;16.370;2022-07-10T01:34:41;99469.96;;;16.61;84.48
70488;BME280;57976;48.174;16.370;2022-07-10T01:36:45;99467.79;;;16.60;84.59
70488;BME280;57976;48.174;16.370;2022-07-10T01:38:48;99463.40;;;16.59;84.26
70488;BME280;57976;48.174;16.370;2022-07-10T01:40:54;99466.75;;;16.59;84.12
70488;BME280;57976;48.174;16.370;2022-07-10T01:42:57;99462.79;;;16.58;84.11
70488;BME280;57976;48.174;16.370;2022-07-10T01:45:00;99460.17;;;16.57;84.13
70488;BME280;57976;48.174;16.370;2022-07-10T01:47:09;99455.75;;;16.56;84.00
70488;BME280;57976;48.174;16.370;2022-07-10T01:49:13;99460.86;;;16.56;84.30
70488;BME280;57976;48.174;16.370;2022-07-10T01:51:16;99458.67;;;16.55;84.24
70488;BME280;57976;48.174;16.370;2022-07-10T01:53:18;99452.20;;;16.54;83.89
70488;BME280;57976;48.174;16.370;2022-07-10T01:55:21;99450.50;;;16.54;84.29
70488;BME280;57976;48.174;16.370;2022-07-10T01:57:24;99447.11;;;16.54;83.91
70488;BME280;57976;48.174;16.370;2022-07-10T01:59:27;99443.31;;;16.56;84.00
70488;BME280;57976;48.174;16.370;2022-07-10T02:01:30;99446.02;;;16.57;84.15
70488;BME280;57976;48.174;16.370;2022-07-10T02:03:33;99449.52;;;16.57;83.96
70488;BME280;57976;48.174;16.370;2022-07-10T02:05:36;99442.09;;;16.56;84.00
70488;BME280;57976;48.174;16.370;2022-07-10T02:07:38;99443.83;;;16.57;83.82
70488;BME280;57976;48.174;16.370;2022-07-10T02:09:42;99437.27;;;16.57;83.85
70488;BME280;57976;48.174;16.370;2022-07-10T02:11:45;99437.87;;;16.57;83.88
70488;BME280;57976;48.174;16.370;2022-07-10T02:13:47;99443.45;;;16.57;83.73
70488;BME280;57976;48.174;16.370;2022-07-10T02:15:51;99441.64;;;16.58;83.83
70488;BME280;57976;48.174;16.370;2022-07-10T02:17:53;99439.70;;;16.58;83.71
70488;BME280;57976;48.174;16.370;2022-07-10T02:19:59;99436.65;;;16.58;83.63
70488;BME280;57976;48.174;16.370;2022-07-10T02:22:03;99434.30;;;16.57;83.37
70488;BME280;57976;48.174;16.370;2022-07-10T02:24:07;99436.00;;;16.55;83.31
70488;BME280;57976;48.174;16.370;2022-07-10T02:26:09;99440.41;;;16.56;83.44
70488;BME280;57976;48.174;16.370;2022-07-10T02:28:15;99441.17;;;16.56;83.47
70488;BME280;57976;48.174;16.370;2022-07-10T02:30:18;99436.46;;;16.55;83.24
70488;BME280;57976;48.174;16.370;2022-07-10T02:32:20;99429.27;;;16.55;83.10
70488;BME280;57976;48.174;16.370;2022-07-10T02:34:23;99427.70;;;16.54;82.79
70488;BME280;57976;48.174;16.370;2022-07-10T02:36:26;99430.96;;;16.54;82.97
70488;BME280;57976;48.174;16.370;2022-07-10T02:38:28;99432.74;;;16.54;82.70
70488;BME280;57976;48.174;16.370;2022-07-10T02:40:31;99431.80;;;16.53;82.61
70488;BME280;57976;48.174;16.370;2022-07-10T02:42:34;99430.16;;;16.55;82.64
70488;BME280;57976;48.174;16.370;2022-07-10T02:44:36;99431.92;;;16.54;82.73
70488;BME280;57976;48.174;16.370;2022-07-10T02:46:39;99431.32;;;16.53;82.59
70488;BME280;57976;48.174;16.370;2022-07-10T02:48:42;99435.70;;;16.52;82.67
70488;BME280;57976;48.174;16.370;2022-07-10T02:50:45;99435.58;;;16.51;82.61
70488;BME280;57976;48.174;16.370;2022-07-10T02:52:47;99436.22;;;16.49;82.90
70488;BME280;57976;48.174;16.370;2022-07-10T02:54:50;99431.45;;;16.46;82.60
70488;BME280;57976;48.174;16.370;2022-07-10T02:56:52;99439.20;;;16.46;82.88
70488;BME280;57976;48.174;16.370;2022-07-10T02:58:55;99435.86;;;16.43;82.90
70488;BME280;57976;48.174;16.370;2022-07-10T03:00:58;99441.34;;;16.43;82.79
70488;BME280;57976;48.174;16.370;2022-07-10T03:03:02;99435.39;;;16.42;82.78
70488;BME280;57976;48.174;16.370;2022-07-10T03:05:07;99434.95;;;16.41;82.77
70488;BME280;57976;48.174;16.370;2022-07-10T03:07:10;99434.32;;;16.42;82.58
70488;BME280;57976;48.174;16.370;2022-07-10T03:09:12;99436.13;;;16.43;82.77
70488;BME280;57976;48.174;16.370;2022-07-10T03:11:15;99431.45;;;16.43;82.66
70488;BME280;57976;48.174;16.370;2022-07-10T03:13:17;99430.86;;;16.43;82.78
70488;BME280;57976;48.174;16.370;2022-07-10T03:15:20;99434.41;;;16.44;82.60
70488;BME280;57976;48.174;16.370;2022-07-10T03:17:23;99435.91;;;16.43;82.63
70488;BME280;57976;48.174;16.370;2022-07-10T03:19:26;99437.41;;;16.43;82.59
70488;BME280;57976;48.174;16.370;2022-07-10T03:21:30;99435.53;;;16.43;82.92
70488;BME280;57976;48.174;16.370;2022-07-10T03:23:32;99434.50;;;16.43;82.86
70488;BME280;57976;48.174;16.370;2022-07-10T03:25:35;99431.04;;;16.42;82.67
70488;BME280;57976;48.174;16.370;2022-07-10T03:27:37;99433.13;;;16.44;82.69
70488;BME280;57976;48.174;16.370;2022-07-10T03:29:40;99433.02;;;16.43;82.70
70488;BME280;57976;48.174;16.370;2022-07-10T03:31:43;99435.88;;;16.45;83.01
70488;BME280;57976;48.174;16.370;2022-07-10T03:33:46;99441.02;;;16.44;82.74
70488;BME280;57976;48.174;16.370;2022-07-10T03:35:48;99437.75;;;16.44;83.03
70488;BME280;57976;48.174;16.370;2022-07-10T03:37:51;99435.79;;;16.45;82.87
70488;BME280;57976;48.174;16.370;2022-07-10T03:39:53;99437.23;;;16.47;82.88
70488;BME280;57976;48.174;16.370;2022-07-10T03:41:56;99437.84;;;16.49;83.11
70488;BME280;57976;48.174;16.370;2022-07-10T03:43:58;99438.17;;;16.52;82.66
70488;BME280;57976;48.174;16.370;2022-07-10T03:46:01;99434.30;;;16.55;82.70
70488;BME280;57976;48.174;16.370;2022-07-10T03:48:05;99433.92;;;16.57;82.51
70488;BME280;57976;48.174;16.370;2022-07-10T03:50:08;99433.54;;;16.58;82.61
70488;BME280;57976;48.174;16.370;2022-07-10T03:52:11;99435.79;;;16.60;82.45
70488;BME280;57976;48.174;16.370;2022-07-10T03:54:14;99433.23;;;16.62;82.11
70488;BME280;57976;48.174;16.370;2022-07-10T03:56:17;99433.55;;;16.62;82.32
70488;BME280;57976;48.174;16.370;2022-07-10T03:58:20;99429.69;;;16.62;82.26
70488;BME280;57976;48.174;16.370;2022-07-10T04:00:23;99429.78;;;16.64;82.31
70488;BME280;57976;48.174;16.370;2022-07-10T04:02:26;99431.53;;;16.65;81.98
70488;BME280;57976;48.174;16.370;2022-07-10T04:04:29;99432.71;;;16.68;82.07
70488;BME280;57976;48.174;16.370;2022-07-10T04:06:31;99437.88;;;16.71;82.15
70488;BME280;57976;48.174;16.370;2022-07-10T04:08:34;99441.45;;;16.72;82.23
70488;BME280;57976;48.174;16.370;2022-07-10T04:10:37;99437.96;;;16.75;81.79
70488;BME280;57976;48.174;16.370;2022-07-10T04:12:39;99437.69;;;16.76;81.73
70488;BME280;57976;48.174;16.370;2022-07-10T04:14:42;99438.38;;;16.81;81.50
70488;BME280;57976;48.174;16.370;2022-07-10T04:16:44;99441.10;;;16.85;81.48
70488;BME280;57976;48.174;16.370;2022-07-10T04:18:47;99438.09;;;16.91;81.12
70488;BME280;57976;48.174;16.370;2022-07-10T04:20:50;99433.17;;;16.96;80.94
70488;BME280;57976;48.174;16.370;2022-07-10T04:22:52;99437.14;;;17.03;80.80
70488;BME280;57976;48.174;16.370;2022-07-10T04:24:55;99433.40;;;17.07;80.51
70488;BME280;57976;48.174;16.370;2022-07-10T04:26:58;99435.23;;;17.13;80.36
70488;BME280;57976;48.174;16.370;2022-07-10T04:29:00;99435.03;;;17.16;79.93
70488;BME280;57976;48.174;16.370;2022-07-10T04:31:03;99438.46;;;17.19;79.82
70488;BME280;57976;48.174;16.370;2022-07-10T04:33:06;99441.84;;;17.24;79.76
70488;BME280;57976;48.174;16.370;2022-07-10T04:35:09;99436.52;;;17.27;79.35
70488;BME280;57976;48.174;16.370;2022-07-10T04:37:12;99442.15;;;17.32;79.17
70488;BME280;57976;48.174;16.370;2022-07-10T04:39:15;99432.68;;;17.35;79.00
70488;BME280;57976;48.174;16.370;2022-07-10T04:41:17;99438.25;;;17.39;78.78
70488;BME280;57976;48.174;16.370;2022-07-10T04:43:20;99437.31;;;17.41;78.45
70488;BME280;57976;48.174;16.370;2022-07-10T04:45:23;99435.59;;;17.44;78.53
70488;BME280;57976;48.174;16.370;2022-07-10T04:47:25;99438.67;;;17.47;78.59
70488;BME280;57976;48.174;16.370;2022-07-10T04:49:28;99433.03;;;17.52;78.45
70488;BME280;57976;48.174;16.370;2022-07-10T04:51:31;99422.42;;;17.56;78.20
70488;BME280;57976;48.174;16.370;2022-07-10T04:53:33;99421.21;;;17.61;78.14
70488;BME280;57976;48.174;16.370;2022-07-10T04:55:36;99417.75;;;17.67;77.92
70488;BME280;57976;48.174;16.370;2022-07-10T04:57:38;99418.26;;;17.72;77.71
70488;BME280;57976;48.174;16.370;2022-07-10T04:59:41;99421.10;;;17.76;77.44
70488;BME280;57976;48.174;16.370;2022-07-10T05:01:44;99422.27;;;17.79;77.42
70488;BME280;57976;48.174;16.370;2022-07-10T05:03:47;99420.41;;;17.85;77.27
70488;BME280;57976;48.174;16.370;2022-07-10T05:05:50;99418.26;;;17.91;77.15
70488;BME280;57976;48.174;16.370;2022-07-10T05:07:52;99418.70;;;17.99;76.76
70488;BME280;57976;48.174;16.370;2022-07-10T05:09:55;99422.39;;;18.04;76.45
70488;BME280;57976;48.174;16.370;2022-07-10T05:11:58;99421.61;;;18.09;76.20
70488;BME280;57976;48.174;16.370;2022-07-10T05:14:00;99418.81;;;18.13;75.86
70488;BME280;57976;48.174;16.370;2022-07-10T05:16:04;99420.02;;;18.15;75.68
70488;BME280;57976;48.174;16.370;2022-07-10T05:18:07;99413.16;;;18.16;75.56
70488;BME280;57976;48.174;16.370;2022-07-10T05:20:11;99409.39;;;18.18;75.40
70488;BME280;57976;48.174;16.370;2022-07-10T05:22:14;99413.79;;;18.20;74.87
70488;BME280;57976;48.174;16.370;2022-07-10T05:24:17;99414.77;;;18.20;74.62
70488;BME280;57976;48.174;16.370;2022-07-10T05:26:19;99413.98;;;18.19;74.57
70488;BME280;57976;48.174;16.370;2022-07-10T05:28:22;99422.89;;;18.19;74.57
70488;BME280;57976;48.174;16.370;2022-07-10T05:30:24;99433.16;;;18.17;73.95
70488;BME280;57976;48.174;16.370;2022-07-10T05:32:27;99420.54;;;18.14;74.21
70488;BME280;57976;48.174;16.370;2022-07-10T05:34:30;99430.10;;;18.15;74.36
70488;BME280;57976;48.174;16.370;2022-07-10T05:36:33;99424.31;;;18.16;74.42
70488;BME280;57976;48.174;16.370;2022-07-10T05:38:35;99434.52;;;18.17;74.04
70488;BME280;57976;48.174;16.370;2022-07-10T05:40:38;99433.55;;;18.18;74.19
70488;BME280;57976;48.174;16.370;2022-07-10T05:42:41;99440.58;;;18.19;74.23
70488;BME280;57976;48.174;16.370;2022-07-10T05:44:43;99439.17;;;18.22;74.09
70488;BME280;57976;48.174;16.370;2022-07-10T05:46:46;99445.29;;;18.21;73.82
70488;BME280;57976;48.174;16.370;2022-07-10T05:48:49;99448.95;;;18.19;73.56
70488;BME280;57976;48.174;16.370;2022-07-10T05:50:52;99449.67;;;18.17;73.67
70488;BME280;57976;48.174;16.370;2022-07-10T05:52:55;99447.23;;;18.16;73.76
70488;BME280;57976;48.174;16.370;2022-07-10T05:54:58;99445.29;;;18.20;73.44
70488;BME280;57976;48.174;16.370;2022-07-10T05:57:01;99449.80;;;18.23;73.53
70488;BME280;57976;48.174;16.370;2022-07-10T05:59:03;99436.91;;;18.26;73.47
70488;BME280;57976;48.174;16.370;2022-07-10T06:01:06;99440.63;;;18.29;73.15
70488;BME280;57976;48.174;16.370;2022-07-10T06:03:09;99441.99;;;18.31;72.94
70488;BME280;57976;48.174;16.370;2022-07-10T06:05:12;99446.07;;;18.29;72.78
70488;BME280;57976;48.174;16.370;2022-07-10T06:07:14;99442.84;;;18.26;72.62
70488;BME280;57976;48.174;16.370;2022-07-10T06:09:17;99445.80;;;18.22;72.77
70488;BME280;57976;48.174;16.370;2022-07-10T06:11:19;99444.81;;;18.21;72.92
70488;BME280;57976;48.174;16.370;2022-07-10T06:13:22;99444.92;;;18.24;73.03
70488;BME280;57976;48.174;16.370;2022-07-10T06:15:25;99441.91;;;18.28;72.83
70488;BME280;57976;48.174;16.370;2022-07-10T06:17:28;99446.20;;;18.27;72.59
70488;BME280;57976;48.174;16.370;2022-07-10T06:19:33;99451.29;;;18.25;72.54
70488;BME280;57976;48.174;16.370;2022-07-10T06:21:36;99448.48;;;18.20;72.41
70488;BME280;57976;48.174;16.370;2022-07-10T06:23:38;99452.73;;;18.13;72.46
70488;BME280;57976;48.174;16.370;2022-07-10T06:25:41;99450.77;;;18.11;72.63
70488;BME280;57976;48.174;16.370;2022-07-10T06:27:47;99457.96;;;18.09;72.54
70488;BME280;57976;48.174;16.370;2022-07-10T06:29:50;99454.52;;;18.04;72.39
70488;BME280;57976;48.174;16.370;2022-07-10T06:31:52;99451.59;;;17.99;72.57
70488;BME280;57976;48.174;16.370;2022-07-10T06:33:55;99452.27;;;17.97;72.68
70488;BME280;57976;48.174;16.370;2022-07-10T06:35:58;99451.56;;;17.97;72.67
70488;BME280;57976;48.174;16.370;2022-07-10T06:38:01;99445.48;;;17.98;72.67
70488;BME280;57976;48.174;16.370;2022-07-10T06:40:07;99441.10;;;18.00;72.77
70488;BME280;57976;48.174;16.370;2022-07-10T06:42:09;99443.27;;;18.08;72.61
70488;BME280;57976;48.174;16.370;2022-07-10T06:44:15;99448.70;;;18.17;72.10
70488;BME280;57976;48.174;16.370;2022-07-10T06:46:18;99445.09;;;18.24;71.65
70488;BME280;57976;48.174;16.370;2022-07-10T06:48:21;99447.31;;;18.32;71.45
70488;BME280;57976;48.174;16.370;2022-07-10T06:50:25;99441.39;;;18.41;71.34
70488;BME280;57976;48.174;16.370;2022-07-10T06:52:28;99442.89;;;18.53;71.26
70488;BME280;57976;48.174;16.370;2022-07-10T06:54:31;99446.27;;;18.68;70.59
70488;BME280;57976;48.174;16.370;2022-07-10T06:56:33;99447.21;;;18.83;70.33
70488;BME280;57976;48.174;16.370;2022-07-10T06:58:36;99436.98;;;18.97;69.77
70488;BME280;57976;48.174;16.370;2022-07-10T07:00:39;99441.16;;;19.10;69.46
70488;BME280;57976;48.174;16.370;2022-07-10T07:02:42;99448.20;;;19.17;68.47
70488;BME280;57976;48.174;16.370;2022-07-10T07:04:45;99455.36;;;19.13;67.53
70488;BME280;57976;48.174;16.370;2022-07-10T07:06:49;99455.05;;;19.01;67.44
70488;BME280;57976;48.174;16.370;2022-07-10T07:08:52;99461.17;;;18.90;66.98
70488;BME280;57976;48.174;16.370;2022-07-10T07:10:54;99455.86;;;18.78;67.69
70488;BME280;57976;48.174;16.370;2022-07-10T07:12:57;99450.70;;;18.69;68.20
70488;BME280;57976;48.174;16.370;2022-07-10T07:15:00;99447.67;;;18.68;68.65
70488;BME280;57976;48.174;16.370;2022-07-10T07:17:03;99447.69;;;18.70;68.77
70488;BME280;57976;48.174;16.370;2022-07-10T07:19:06;99436.66;;;18.73;68.80
70488;BME280;57976;48.174;16.370;2022-07-10T07:21:09;99436.09;;;18.83;68.74
70488;BME280;57976;48.174;16.370;2022-07-10T07:23:11;99443.12;;;18.93;67.80
70488;BME280;57976;48.174;16.370;2022-07-10T07:25:14;99435.91;;;18.99;66.77
70488;BME280;57976;48.174;16.370;2022-07-10T07:27:16;99440.59;;;19.07;65.91
70488;BME280;57976;48.174;16.370;2022-07-10T07:29:19;99439.16;;;19.10;65.49
70488;BME280;57976;48.174;16.370;2022-07-10T07:31:22;99446.89;;;19.16;64.71
70488;BME280;57976;48.174;16.370;2022-07-10T07:33:25;99440.59;;;19.18;64.00
70488;BME280;57976;48.174;16.370;2022-07-10T07:35:30;99433.03;;;19.17;63.43
70488;BME280;57976;48.174;16.370;2022-07-10T07:37:37;99437.11;;;19.20;63.37
70488;BME280;57976;48.174;16.370;2022-07-10T07:39:41;99439.50;;;19.20;63.59
70488;BME280;57976;48.174;16.370;2022-07-10T07:41:43;99437.09;;;19.17;64.22
70488;BME280;57976;48.174;16.370;2022-07-10T07:43:46;99433.55;;;19.15;64.21
70488;BME280;57976;48.174;16.370;2022-07-10T07:45:49;99440.34;;;19.09;64.42
70488;BME280;57976;48.174;16.370;2022-07-10T07:47:53;99443.46;;;18.98;64.92
70488;BME280;57976;48.174;16.370;2022-07-10T07:49:56;99452.66;;;18.88;65.46
70488;BME280;57976;48.174;16.370;2022-07-10T07:51:59;99468.27;;;18.74;66.13
70488;BME280;57976;48.174;16.370;2022-07-10T07:54:02;99469.59;;;18.46;66.84
70488;BME280;57976;48.174;16.370;2022-07-10T07:56:05;99468.05;;;18.13;67.70
70488;BME280;57976;48.174;16.370;2022-07-10T07:58:08;99468.03;;;17.83;68.71
70488;BME280;57976;48.174;16.370;2022-07-10T08:00:13;99468.53;;;17.58;69.88
70488;BME280;57976;48.174;16.370;2022-07-10T08:02:17;99470.49;;;17.38;71.61
70488;BME280;57976;48.174;16.370;2022-07-10T08:04:19;99484.66;;;17.19;73.04
70488;BME280;57976;48.174;16.370;2022-07-10T08:06:22;99494.93;;;16.91;74.73
70488;BME280;57976;48.174;16.370;2022-07-10T08:08:25;99492.53;;;16.63;76.46
70488;BME280;57976;48.174;16.370;2022-07-10T08:10:28;99487.61;;;16.37;77.25
70488;BME280;57976;48.174;16.370;2022-07-10T08:12:31;99496.81;;;16.17;78.96
70488;BME280;57976;48.174;16.370;2022-07-10T08:14:36;99492.17;;;16.02;79.25
70488;BME280;57976;48.174;16.370;2022-07-10T08:16:39;99498.42;;;15.92;80.08
70488;BME280;57976;48.174;16.370;2022-07-10T08:18:44;99499.15;;;15.85;80.41
70488;BME280;57976;48.174;16.370;2022-07-10T08:20:47;99500.13;;;15.80;80.74
70488;BME280;57976;48.174;16.370;2022-07-10T08:22:50;99497.89;;;15.77;81.64
70488;BME280;57976;48.174;16.370;2022-07-10T08:25:01;99498.98;;;15.75;81.97
70488;BME280;57976;48.174;16.370;2022-07-10T08:27:05;99500.95;;;15.74;82.83
70488;BME280;57976;48.174;16.370;2022-07-10T08:29:08;99497.71;;;15.74;82.62
70488;BME280;57976;48.174;16.370;2022-07-10T08:31:10;99507.73;;;15.76;83.05
70488;BME280;57976;48.174;16.370;2022-07-10T08:33:18;99498.55;;;15.79;82.83
70488;BME280;57976;48.174;16.370;2022-07-10T08:35:21;99488.44;;;15.83;82.65
70488;BME280;57976;48.174;16.370;2022-07-10T08:37:23;99492.76;;;15.90;82.92
70488;BME280;57976;48.174;16.370;2022-07-10T08:39:26;99495.34;;;15.96;83.01
70488;BME280;57976;48.174;16.370;2022-07-10T08:41:30;99494.95;;;16.00;82.82
70488;BME280;57976;48.174;16.370;2022-07-10T08:43:33;99496.66;;;16.04;82.94
70488;BME280;57976;48.174;16.370;2022-07-10T08:45:36;99497.89;;;16.07;82.11
70488;BME280;57976;48.174;16.370;2022-07-10T08:47:39;99491.34;;;16.17;81.79
70488;BME280;57976;48.174;16.370;2022-07-10T08:49:46;99484.31;;;16.29;80.40
70488;BME280;57976;48.174;16.370;2022-07-10T08:51:57;99484.61;;;16.40;79.95
70488;BME280;57976;48.174;16.370;2022-07-10T08:54:01;99485.13;;;16.50;79.11
70488;BME280;57976;48.174;16.370;2022-07-10T08:56:07;99479.64;;;16.58;79.30
70488;BME280;57976;48.174;16.370;2022-07-10T08:58:10;99476.36;;;16.71;79.34
70488;BME280;57976;48.174;16.370;2022-07-10T09:00:15;99477.52;;;16.84;78.70
70488;BME280;57976;48.174;16.370;2022-07-10T09:02:18;99476.10;;;16.94;77.98
70488;BME280;57976;48.174;16.370;2022-07-10T09:04:22;99474.20;;;17.05;77.57
70488;BME280;57976;48.174;16.370;2022-07-10T09:06:25;99474.29;;;17.17;77.93
70488;BME280;57976;48.174;16.370;2022-07-10T09:08:33;99483.71;;;17.23;77.72
70488;BME280;57976;48.174;16.370;2022-07-10T09:10:36;99478.79;;;17.21;77.35
70488;BME280;57976;48.174;16.370;2022-07-10T09:12:52;99497.09;;;17.15;76.32
70488;BME280;57976;48.174;16.370;2022-07-10T09:15:15;99480.61;;;17.05;75.34
70488;BME280;57976;48.174;16.370;2022-07-10T09:17:19;99480.15;;;17.06;74.11
70488;BME280;57976;48.174;16.370;2022-07-10T09:19:24;99468.45;;;17.10;74.15
70488;BME280;57976;48.174;16.370;2022-07-10T09:21:33;99465.35;;;17.12;73.50
70488;BME280;57976;48.174;16.370;2022-07-10T09:23:36;99465.45;;;17.11;72.36
70488;BME280;57976;48.174;16.370;2022-07-10T09:25:38;99478.27;;;17.14;71.62
70488;BME280;57976;48.174;16.370;2022-07-10T09:27:52;99470.36;;;17.18;70.94
70488;BME280;57976;48.174;16.370;2022-07-10T09:29:55;99469.73;;;17.26;70.98
70488;BME280;57976;48.174;16.370;2022-07-10T09:31:58;99465.95;;;17.34;70.57
70488;BME280;57976;48.174;16.370;2022-07-10T09:34:01;99463.34;;;17.45;70.31
70488;BME280;57976;48.174;16.370;2022-07-10T09:36:06;99467.61;;;17.55;70.03
70488;BME280;57976;48.174;16.370;2022-07-10T09:38:09;99467.66;;;17.67;69.74
70488;BME280;57976;48.174;16.370;2022-07-10T09:40:12;99469.45;;;17.80;69.81
70488;BME280;57976;48.174;16.370;2022-07-10T09:42:26;99464.09;;;17.95;69.22
70488;BME280;57976;48.174;16.370;2022-07-10T09:44:29;99467.44;;;18.12;69.05
70488;BME280;57976;48.174;16.370;2022-07-10T09:46:33;99465.98;;;18.30;68.73
70488;BME280;57976;48.174;16.370;2022-07-10T09:48:36;99470.36;;;18.47;68.46
70488;BME280;57976;48.174;16.370;2022-07-10T09:50:39;99461.36;;;18.59;67.98
70488;BME280;57976;48.174;16.370;2022-07-10T09:52:41;99455.49;;;18.64;67.88
70488;BME280;57976;48.174;16.370;2022-07-10T09:54:44;99451.03;;;18.69;68.16
70488;BME280;57976;48.174;16.370;2022-07-10T09:56:48;99457.02;;;18.82;67.78
70488;BME280;57976;48.174;16.370;2022-07-10T09:58:53;99455.96;;;18.91;66.48
70488;BME280;57976;48.174;16.370;2022-07-10T10:01:01;99462.45;;;18.97;65.97
70488;BME280;57976;48.174;16.370;2022-07-10T10:03:06;99455.90;;;19.00;65.93
70488;BME280;57976;48.174;16.370;2022-07-10T10:05:10;99455.65;;;19.06;65.66
70488;BME280;57976;48.174;16.370;2022-07-10T10:07:14;99454.17;;;19.13;65.66
70488;BME280;57976;48.174;16.370;2022-07-10T10:09:23;99469.36;;;19.16;63.29
70488;BME280;57976;48.174;16.370;2022-07-10T10:11:27;99446.57;;;19.10;63.31
70488;BME280;57976;48.174;16.370;2022-07-10T10:13:35;99448.87;;;19.08;62.75
70488;BME280;57976;48.174;16.370;2022-07-10T10:15:37;99442.23;;;19.09;63.04
70488;BME280;57976;48.174;16.370;2022-07-10T10:17:41;99447.88;;;19.11;62.78
70488;BME280;57976;48.174;16.370;2022-07-10T10:19:45;99451.83;;;19.16;63.06
70488;BME280;57976;48.174;16.370;2022-07-10T10:21:48;99452.21;;;19.23;62.63
70488;BME280;57976;48.174;16.370;2022-07-10T10:23:52;99442.55;;;19.23;62.41
70488;BME280;57976;48.174;16.370;2022-07-10T10:25:57;99443.44;;;19.25;61.84
70488;BME280;57976;48.174;16.370;2022-07-10T10:28:00;99453.63;;;19.28;61.17
70488;BME280;57976;48.174;16.370;2022-07-10T10:30:04;99447.21;;;19.30;61.13
70488;BME280;57976;48.174;16.370;2022-07-10T10:32:08;99447.77;;;19.30;60.43
70488;BME280;57976;48.174;16.370;2022-07-10T10:34:11;99446.80;;;19.31;60.21
70488;BME280;57976;48.174;16.370;2022-07-10T10:36:42;99428.13;;;19.41;59.95
70488;BME280;57976;48.174;16.370;2022-07-10T10:39:09;99432.70;;;19.55;59.62
70488;BME280;57976;48.174;16.370;2022-07-10T10:41:25;99436.80;;;19.65;59.51
70488;BME280;57976;48.174;16.370;2022-07-10T10:43:28;99432.04;;;19.72;59.62
70488;BME280;57976;48.174;16.370;2022-07-10T10:45:34;99420.89;;;19.78;59.53